Time;durP1;ratioP1;P1;durP2;ratioP2;P2;SDS_P1;SDS_P2;PMS_P1;PMS_P2;Temp;Humidity;BMP_temperature;BMP_pressure;BME280_temperature;BME280_humidity;BME280_pressure;Samples;Min_cycle;Max_cycle;Signal;HPM_P1;HPM_P2
2021/04/11 00:00:19;;;;;;;0.70;0.70;;;;;;;;;;5026725;28;20216;-66
2021/04/11 00:02:45;;;;;;;0.57;0.57;;;;;;;;;;5030377;28;20437;-66
2021/04/11 00:05:13;;;;;;;0.50;0.50;;;;;;;;;;5025206;28;20216;-66
2021/04/11 00:07:39;;;;;;;1.55;0.88;;;;;;;;;;5027866;28;20294;-66
2021/04/11 00:10:07;;;;;;;0.65;0.60;;;;;;;;;;5030653;28;20173;-67
2021/04/11 00:12:33;;;;;;;0.60;0.60;;;;;;;;;;5029734;28;20208;-69
2021/04/11 00:14:59;;;;;;;0.98;0.80;;;;;;;;;;5031658;28;20596;-68
2021/04/11 00:17:25;;;;;;;0.83;0.83;;;;;;;;;;5027053;28;20197;-67
2021/04/11 00:19:51;;;;;;;1.00;0.88;;;;;;;;;;5028210;28;20469;-66
2021/04/11 00:22:17;;;;;;;0.75;0.75;;;;;;;;;;5029720;28;20207;-67
2021/04/11 00:24:43;;;;;;;0.68;0.65;;;;;;;;;;5031215;28;20181;-67
2021/04/11 00:27:09;;;;;;;0.40;0.40;;;;;;;;;;5029814;28;20230;-68
2021/04/11 00:29:35;;;;;;;0.57;0.50;;;;;;;;;;5030053;28;20447;-66
2021/04/11 00:32:01;;;;;;;0.40;0.40;;;;;;;;;;5029491;28;20187;-65
2021/04/11 00:34:27;;;;;;;0.50;0.50;;;;;;;;;;5031343;28;20446;-67
2021/04/11 00:36:53;;;;;;;0.60;0.60;;;;;;;;;;5033442;28;20806;-66
2021/04/11 00:39:19;;;;;;;0.82;0.77;;;;;;;;;;5034536;28;20754;-67
2021/04/11 00:41:47;;;;;;;1.38;0.80;;;;;;;;;;5033530;28;20185;-66
2021/04/11 00:44:13;;;;;;;0.50;0.50;;;;;;;;;;5034143;28;20183;-67
2021/04/11 00:46:44;;;;;;;0.55;0.50;;;;;;;;;;5031305;28;20185;-67
2021/04/11 00:49:30;;;;;;;0.77;0.77;;;;;;;;;;5031949;28;20274;-65
2021/04/11 00:51:57;;;;;;;0.60;0.60;;;;;;;;;;5029725;28;20586;-66
2021/04/11 00:54:23;;;;;;;0.85;0.63;;;;;;;;;;5033524;28;20702;-65
2021/04/11 00:56:49;;;;;;;0.85;0.60;;;;;;;;;;5033114;28;20208;-66
2021/04/11 00:59:15;;;;;;;2.00;0.63;;;;;;;;;;5016808;28;20211;-69
2021/04/11 01:01:42;;;;;;;0.68;0.68;;;;;;;;;;5032524;28;20471;-67
2021/04/11 01:04:09;;;;;;;0.77;0.50;;;;;;;;;;5032672;28;20184;-67
2021/04/11 01:07:08;;;;;;;0.80;0.80;;;;;;;;;;5033688;28;20246;-66
2021/04/11 01:09:35;;;;;;;2.08;1.05;;;;;;;;;;4999266;28;20254;-67
2021/04/11 01:12:05;;;;;;;0.60;0.60;;;;;;;;;;5034056;28;20192;-67
2021/04/11 01:14:32;;;;;;;1.20;1.20;;;;;;;;;;5033217;28;20195;-67
2021/04/11 01:16:58;;;;;;;2.97;1.42;;;;;;;;;;5032392;28;20219;-64
2021/04/11 01:19:27;;;;;;;5.82;0.88;;;;;;;;;;5033185;28;20209;-68
2021/04/11 01:22:00;;;;;;;0.75;0.73;;;;;;;;;;5031345;28;20181;-68
2021/04/11 01:24:35;;;;;;;0.40;0.40;;;;;;;;;;5032624;28;20264;-67
2021/04/11 01:27:02;;;;;;;1.67;0.90;;;;;;;;;;5032282;28;20195;-66
2021/04/11 01:29:28;;;;;;;0.47;0.47;;;;;;;;;;5027779;28;20192;-66
2021/04/11 01:31:54;;;;;;;1.08;0.73;;;;;;;;;;5033282;28;20744;-66
2021/04/11 01:34:20;;;;;;;2.78;1.08;;;;;;;;;;5034096;28;20240;-65
2021/04/11 01:36:48;;;;;;;0.40;0.40;;;;;;;;;;5032051;28;20188;-68
2021/04/11 01:39:18;;;;;;;0.80;0.50;;;;;;;;;;5033218;28;20688;-67
2021/04/11 01:41:45;;;;;;;1.00;1.00;;;;;;;;;;5033221;28;20268;-68
2021/04/11 01:44:14;;;;;;;0.63;0.63;;;;;;;;;;5033045;28;20245;-68
2021/04/11 01:46:40;;;;;;;1.23;1.23;;;;;;;;;;5033106;28;20189;-67
2021/04/11 01:49:06;;;;;;;0.77;0.50;;;;;;;;;;5014569;28;20572;-67
2021/04/11 01:51:34;;;;;;;1.67;1.00;;;;;;;;;;5031585;28;20224;-66
2021/04/11 01:54:01;;;;;;;0.40;0.40;;;;;;;;;;5033195;28;20193;-67
2021/04/11 01:56:28;;;;;;;0.57;0.57;;;;;;;;;;5031694;28;20576;-68
2021/04/11 01:58:54;;;;;;;1.02;0.70;;;;;;;;;;5031614;28;20269;-65
2021/04/11 02:01:23;;;;;;;0.85;0.85;;;;;;;;;;5032703;28;20640;-65
2021/04/11 02:03:53;;;;;;;0.93;0.73;;;;;;;;;;5032129;28;20193;-65
2021/04/11 02:06:20;;;;;;;1.17;1.15;;;;;;;;;;5014252;28;20334;-66
2021/04/11 02:08:47;;;;;;;1.08;0.80;;;;;;;;;;5032112;28;20193;-66
2021/04/11 02:11:14;;;;;;;0.85;0.85;;;;;;;;;;5032173;28;20184;-65
2021/04/11 02:13:40;;;;;;;0.90;0.70;;;;;;;;;;5031761;28;20219;-66
2021/04/11 02:16:07;;;;;;;0.90;0.70;;;;;;;;;;5032593;28;20264;-67
2021/04/11 02:18:34;;;;;;;0.55;0.55;;;;;;;;;;5031406;28;20259;-67
2021/04/11 02:21:01;;;;;;;0.73;0.73;;;;;;;;;;5031194;28;20837;-67
2021/04/11 02:23:27;;;;;;;0.57;0.55;;;;;;;;;;5031666;28;20540;-67
2021/04/11 02:25:54;;;;;;;0.80;0.80;;;;;;;;;;5031676;28;20707;-64
2021/04/11 02:28:24;;;;;;;0.90;0.90;;;;;;;;;;5031009;28;20221;-66
2021/04/11 02:30:52;;;;;;;0.60;0.60;;;;;;;;;;5029332;28;20219;-67
2021/04/11 02:33:20;;;;;;;0.75;0.75;;;;;;;;;;5032924;28;20199;-67
2021/04/11 02:35:46;;;;;;;0.55;0.55;;;;;;;;;;5031146;28;20231;-67
2021/04/11 02:38:12;;;;;;;0.50;0.50;;;;;;;;;;5029884;28;20209;-67
2021/04/11 02:40:43;;;;;;;0.50;0.50;;;;;;;;;;5031767;28;20644;-67
2021/04/11 02:43:11;;;;;;;0.70;0.65;;;;;;;;;;5032830;28;20192;-66
2021/04/11 02:45:39;;;;;;;0.40;0.40;;;;;;;;;;5031063;28;20578;-65
2021/04/11 02:48:07;;;;;;;0.68;0.68;;;;;;;;;;5030987;28;20265;-66
2021/04/11 02:50:33;;;;;;;0.80;0.80;;;;;;;;;;5029732;28;20228;-64
2021/04/11 02:53:04;;;;;;;0.80;0.80;;;;;;;;;;5031299;28;20691;-66
2021/04/11 02:55:33;;;;;;;1.17;1.08;;;;;;;;;;5031271;28;20259;-66
2021/04/11 02:57:59;;;;;;;0.93;0.93;;;;;;;;;;5029884;28;20215;-66
2021/04/11 03:00:27;;;;;;;0.82;0.82;;;;;;;;;;5031221;28;20517;-67
2021/04/11 03:02:53;;;;;;;0.65;0.65;;;;;;;;;;5031982;28;20548;-66
2021/04/11 03:05:21;;;;;;;1.00;1.00;;;;;;;;;;5030890;28;20176;-66
2021/04/11 03:07:48;;;;;;;0.80;0.70;;;;;;;;;;5031088;28;20228;-66
2021/04/11 03:10:23;;;;;;;1.10;1.02;;;;;;;;;;5030525;28;20246;-67
2021/04/11 03:12:51;;;;;;;1.15;0.60;;;;;;;;;;5030082;28;20194;-67
2021/04/11 03:15:17;;;;;;;0.70;0.70;;;;;;;;;;5032462;28;20208;-67
2021/04/11 03:17:43;;;;;;;0.95;0.95;;;;;;;;;;5028031;28;20271;-66
2021/04/11 03:20:13;;;;;;;0.50;0.50;;;;;;;;;;5031377;28;20732;-65
2021/04/11 03:22:39;;;;;;;1.73;0.85;;;;;;;;;;5021361;28;20315;-67
2021/04/11 03:25:06;;;;;;;0.60;0.60;;;;;;;;;;5031629;28;20181;-67
2021/04/11 03:27:35;;;;;;;0.70;0.70;;;;;;;;;;5031148;28;20224;-65
2021/04/11 03:30:06;;;;;;;0.80;0.60;;;;;;;;;;5029790;28;20239;-66
2021/04/11 03:32:46;;;;;;;0.50;0.50;;;;;;;;;;5033356;28;20180;-67
2021/04/11 03:35:13;;;;;;;0.75;0.75;;;;;;;;;;5023476;28;20231;-67
2021/04/11 03:37:40;;;;;;;1.35;1.25;;;;;;;;;;5033324;28;20207;-66
2021/04/11 03:40:10;;;;;;;1.02;1.02;;;;;;;;;;5036832;28;20184;-67
2021/04/11 03:42:37;;;;;;;1.20;1.20;;;;;;;;;;5034230;28;20620;-66
2021/04/11 03:45:04;;;;;;;0.93;0.93;;;;;;;;;;5033492;28;20180;-67
2021/04/11 03:47:30;;;;;;;0.77;0.65;;;;;;;;;;5028806;28;20850;-68
2021/04/11 03:50:02;;;;;;;1.17;0.70;;;;;;;;;;5029121;28;20184;-67
2021/04/11 03:52:33;;;;;;;2.25;1.50;;;;;;;;;;5026791;28;20465;-67
2021/04/11 03:55:02;;;;;;;0.60;0.60;;;;;;;;;;5030793;28;20188;-67
2021/04/11 03:57:30;;;;;;;0.80;0.80;;;;;;;;;;5028701;28;20668;-65
2021/04/11 04:00:03;;;;;;;0.50;0.50;;;;;;;;;;5029494;28;20201;-64
2021/04/11 04:02:31;;;;;;;1.30;0.93;;;;;;;;;;5023683;28;20183;-67
2021/04/11 04:04:58;;;;;;;0.80;0.80;;;;;;;;;;5026760;28;20263;-66
2021/04/11 04:07:24;;;;;;;1.05;1.05;;;;;;;;;;5028702;28;20197;-68
2021/04/11 04:09:56;;;;;;;0.98;0.88;;;;;;;;;;5030548;28;20679;-65
2021/04/11 04:12:27;;;;;;;0.82;0.80;;;;;;;;;;5029555;28;20216;-66
2021/04/11 04:15:03;;;;;;;2.35;0.88;;;;;;;;;;5029327;28;20191;-66
2021/04/11 04:17:29;;;;;;;0.60;0.60;;;;;;;;;;5027966;28;20212;-67
2021/04/11 04:19:58;;;;;;;0.50;0.40;;;;;;;;;;5030533;28;20212;-65
2021/04/11 04:22:33;;;;;;;0.82;0.82;;;;;;;;;;5028369;28;20189;-66
2021/04/11 04:25:06;;;;;;;0.95;0.75;;;;;;;;;;5031262;28;20669;-67
2021/04/11 04:27:58;;;;;;;0.52;0.52;;;;;;;;;;5026453;28;20220;-62
2021/04/11 04:30:25;;;;;;;0.45;0.45;;;;;;;;;;5028142;28;20184;-66
2021/04/11 04:33:06;;;;;;;1.60;0.70;;;;;;;;;;5029710;28;20259;-67
2021/04/11 04:35:35;;;;;;;0.40;0.40;;;;;;;;;;5028229;28;20184;-66
2021/04/11 04:38:23;;;;;;;0.70;0.60;;;;;;;;;;5029329;28;20256;-66
2021/04/11 04:41:06;;;;;;;0.80;0.80;;;;;;;;;;5015016;28;20184;-68
2021/04/11 04:43:51;;;;;;;0.55;0.52;;;;;;;;;;5027736;28;20220;-66
2021/04/11 04:46:29;;;;;;;0.68;0.68;;;;;;;;;;5027941;28;20179;-68
2021/04/11 04:49:10;;;;;;;0.73;0.73;;;;;;;;;;5027597;28;20263;-68
2021/04/11 04:51:48;;;;;;;1.13;1.02;;;;;;;;;;5029194;28;20177;-66
2021/04/11 04:54:25;;;;;;;0.52;0.50;;;;;;;;;;5029539;28;20210;-66
2021/04/11 04:57:00;;;;;;;0.50;0.50;;;;;;;;;;5029676;28;20223;-66
2021/04/11 04:59:30;;;;;;;1.00;0.98;;;;;;;;;;5027669;28;20255;-63
2021/04/11 05:02:15;;;;;;;0.60;0.60;;;;;;;;;;5028696;28;20645;-66
2021/04/11 05:04:46;;;;;;;0.50;0.50;;;;;;;;;;5027481;28;20185;-66
2021/04/11 05:07:14;;;;;;;0.65;0.60;;;;;;;;;;5022445;28;20185;-66
2021/04/11 05:09:48;;;;;;;0.85;0.85;;;;;;;;;;5024108;28;20195;-64
2021/04/11 05:12:14;;;;;;;1.25;0.73;;;;;;;;;;5022695;28;20197;-68
2021/04/11 05:14:44;;;;;;;0.60;0.60;;;;;;;;;;5022361;28;20209;-64
2021/04/11 05:17:19;;;;;;;1.17;0.93;;;;;;;;;;5021149;28;20211;-66
2021/04/11 05:19:47;;;;;;;0.80;0.55;;;;;;;;;;5025221;28;20212;-68
2021/04/11 05:22:18;;;;;;;0.50;0.50;;;;;;;;;;5031950;28;20230;-67
2021/04/11 05:24:46;;;;;;;0.60;0.60;;;;;;;;;;5034122;28;20235;-66
2021/04/11 05:27:12;;;;;;;0.75;0.75;;;;;;;;;;5030926;28;20251;-67
2021/04/11 05:29:57;;;;;;;0.60;0.60;;;;;;;;;;5032403;28;20188;-67
2021/04/11 05:32:23;;;;;;;0.55;0.55;;;;;;;;;;5032138;28;20480;-67
2021/04/11 05:34:50;;;;;;;0.40;0.40;;;;;;;;;;5033281;28;20648;-66
2021/04/11 05:37:23;;;;;;;0.90;0.90;;;;;;;;;;5033372;28;20184;-67
2021/04/11 05:40:04;;;;;;;2.05;0.95;;;;;;;;;;5032862;28;20263;-67
2021/04/11 05:42:33;;;;;;;0.60;0.60;;;;;;;;;;5027978;28;20644;-66
2021/04/11 05:44:59;;;;;;;0.52;0.52;;;;;;;;;;5030460;28;20204;-68
2021/04/11 05:47:44;;;;;;;0.57;0.57;;;;;;;;;;5031239;28;20212;-65
2021/04/11 05:50:18;;;;;;;0.57;0.57;;;;;;;;;;5030988;28;20435;-67
2021/04/11 05:53:03;;;;;;;0.70;0.60;;;;;;;;;;5029762;28;20192;-66
2021/04/11 05:55:30;;;;;;;1.35;1.10;;;;;;;;;;5032296;28;21231;-65
2021/04/11 05:58:04;;;;;;;1.30;1.20;;;;;;;;;;5033214;28;20204;-67
2021/04/11 06:00:42;;;;;;;0.88;0.88;;;;;;;;;;5031443;28;20687;-66
2021/04/11 06:03:12;;;;;;;0.60;0.60;;;;;;;;;;5028043;28;20180;-67
2021/04/11 06:06:14;;;;;;;0.60;0.60;;;;;;;;;;5031181;28;20188;-67
2021/04/11 06:08:55;;;;;;;0.70;0.70;;;;;;;;;;4960090;28;20296;-65
2021/04/11 06:11:25;;;;;;;0.70;0.70;;;;;;;;;;5020809;28;20204;-68
2021/04/11 06:13:59;;;;;;;0.95;0.70;;;;;;;;;;5031139;28;20472;-68
2021/04/11 06:16:26;;;;;;;1.23;1.23;;;;;;;;;;5030993;28;20237;-66
2021/04/11 06:18:53;;;;;;;0.68;0.68;;;;;;;;;;5031807;28;20216;-66
2021/04/11 06:21:31;;;;;;;1.10;0.93;;;;;;;;;;5031597;28;20680;-66
2021/04/11 06:24:21;;;;;;;0.57;0.57;;;;;;;;;;5029347;28;21438;-68
2021/04/11 06:26:49;;;;;;;1.15;1.05;;;;;;;;;;5023147;28;20467;-68
2021/04/11 06:29:17;;;;;;;1.50;0.88;;;;;;;;;;5027164;28;20295;-65
2021/04/11 06:31:47;;;;;;;0.65;0.65;;;;;;;;;;5024792;28;20181;-66
2021/04/11 06:34:17;;;;;;;1.75;0.80;;;;;;;;;;5031827;28;20230;-66
2021/04/11 06:36:45;;;;;;;1.30;0.70;;;;;;;;;;5030769;28;20184;-67
2021/04/11 06:39:20;;;;;;;1.10;1.10;;;;;;;;;;5029194;28;20286;-66
2021/04/11 06:42:06;;;;;;;1.33;0.80;;;;;;;;;;5030645;28;20443;-66
2021/04/11 06:44:38;;;;;;;0.60;0.60;;;;;;;;;;5030191;28;20181;-67
2021/04/11 06:47:07;;;;;;;0.67;0.67;;;;;;;;;;5031258;28;20459;-64
2021/04/11 06:49:52;;;;;;;0.90;0.90;;;;;;;;;;5030900;28;20779;-66
2021/04/11 06:52:31;;;;;;;0.52;0.52;;;;;;;;;;5027174;28;20435;-65
2021/04/11 06:55:20;;;;;;;0.60;0.50;;;;;;;;;;5028669;28;20680;-66
2021/04/11 06:57:55;;;;;;;0.50;0.50;;;;;;;;;;5029106;28;20479;-68
2021/04/11 07:00:40;;;;;;;0.60;0.53;;;;;;;;;;5031214;28;20418;-67
2021/04/11 07:03:29;;;;;;;1.55;0.70;;;;;;;;;;5031861;28;20448;-67
2021/04/11 07:06:11;;;;;;;1.17;0.80;;;;;;;;;;4993646;28;20624;-67
2021/04/11 07:09:00;;;;;;;0.90;0.90;;;;;;;;;;5027341;28;20480;-66
2021/04/11 07:11:37;;;;;;;1.25;1.15;;;;;;;;;;5028696;28;20252;-66
2021/04/11 07:14:10;;;;;;;1.17;0.90;;;;;;;;;;5029527;28;20208;-65
2021/04/11 07:16:54;;;;;;;0.93;0.90;;;;;;;;;;5031159;28;20934;-65
2021/04/11 07:19:20;;;;;;;1.70;1.03;;;;;;;;;;5030201;28;20227;-65
2021/04/11 07:22:09;;;;;;;0.70;0.70;;;;;;;;;;5030738;28;20776;-67
2021/04/11 07:25:04;;;;;;;0.40;0.40;;;;;;;;;;5028875;28;20935;-66
2021/04/11 07:27:49;;;;;;;0.75;0.75;;;;;;;;;;5013113;28;20566;-67
2021/04/11 07:30:27;;;;;;;0.63;0.63;;;;;;;;;;5028362;28;20738;-65
2021/04/11 07:33:01;;;;;;;0.70;0.70;;;;;;;;;;5034369;28;20486;-65
2021/04/11 07:35:37;;;;;;;0.50;0.50;;;;;;;;;;5031496;28;20510;-67
2021/04/11 07:38:21;;;;;;;0.67;0.67;;;;;;;;;;5032171;28;20450;-65
2021/04/11 07:40:59;;;;;;;0.60;0.60;;;;;;;;;;5033387;28;20463;-67
2021/04/11 07:43:44;;;;;;;0.60;0.60;;;;;;;;;;5033488;28;20430;-66
2021/04/11 07:46:19;;;;;;;0.93;0.77;;;;;;;;;;5029575;28;20859;-65
2021/04/11 07:49:04;;;;;;;1.00;0.63;;;;;;;;;;5030657;28;20445;-64
2021/04/11 07:51:38;;;;;;;0.70;0.70;;;;;;;;;;5031209;28;20994;-64
2021/04/11 07:54:22;;;;;;;1.90;1.27;;;;;;;;;;5030201;28;20410;-68
2021/04/11 07:56:51;;;;;;;1.13;0.63;;;;;;;;;;5019028;28;20456;-68
2021/04/11 07:59:30;;;;;;;1.03;0.90;;;;;;;;;;5029979;28;20487;-66
2021/04/11 08:02:14;;;;;;;0.87;0.87;;;;;;;;;;5018512;28;20437;-65
2021/04/11 08:05:00;;;;;;;0.50;0.50;;;;;;;;;;5011842;28;20504;-67
2021/04/11 08:07:26;;;;;;;0.93;0.60;;;;;;;;;;5021760;28;20504;-63
2021/04/11 08:10:00;;;;;;;0.53;0.53;;;;;;;;;;5029943;28;20407;-66
2021/04/11 08:12:26;;;;;;;0.70;0.70;;;;;;;;;;5030076;28;20429;-66
2021/04/11 08:15:10;;;;;;;0.60;0.60;;;;;;;;;;5030427;28;20420;-67
2021/04/11 08:17:45;;;;;;;0.70;0.70;;;;;;;;;;5030100;28;21056;-66
2021/04/11 08:20:14;;;;;;;0.70;0.63;;;;;;;;;;5030688;28;20498;-65
2021/04/11 08:22:49;;;;;;;0.60;0.60;;;;;;;;;;5030266;28;20427;-68
2021/04/11 08:25:15;;;;;;;0.40;0.40;;;;;;;;;;5030077;28;20400;-67
2021/04/11 08:27:47;;;;;;;0.50;0.50;;;;;;;;;;5028743;28;20451;-66
2021/04/11 08:30:17;;;;;;;1.60;0.50;;;;;;;;;;5029477;28;20458;-65
2021/04/11 08:32:46;;;;;;;0.70;0.70;;;;;;;;;;5028452;28;20472;-67
2021/04/11 08:35:21;;;;;;;0.60;0.57;;;;;;;;;;5029949;28;20795;-68
2021/04/11 08:37:58;;;;;;;0.70;0.70;;;;;;;;;;5030329;28;20455;-66
2021/04/11 08:40:24;;;;;;;1.23;0.67;;;;;;;;;;5029527;28;20431;-66
2021/04/11 08:42:50;;;;;;;0.43;0.40;;;;;;;;;;5027515;28;20390;-67
2021/04/11 08:45:23;;;;;;;0.97;0.80;;;;;;;;;;5029929;28;20427;-68
2021/04/11 08:48:07;;;;;;;0.90;0.60;;;;;;;;;;5027358;28;20989;-66
2021/04/11 08:50:52;;;;;;;0.60;0.50;;;;;;;;;;5021052;28;20787;-66
2021/04/11 08:53:33;;;;;;;0.77;0.77;;;;;;;;;;5028854;28;20412;-66
2021/04/11 08:56:07;;;;;;;0.50;0.37;;;;;;;;;;5023612;28;20416;-65
2021/04/11 08:58:33;;;;;;;4.53;0.87;;;;;;;;;;5022515;28;20450;-66
2021/04/11 09:01:21;;;;;;;0.80;0.60;;;;;;;;;;5032683;28;20408;-66
2021/04/11 09:04:06;;;;;;;0.60;0.50;;;;;;;;;;5013903;28;20410;-64
2021/04/11 09:06:32;;;;;;;1.03;0.70;;;;;;;;;;5033723;28;20419;-64
2021/04/11 09:09:16;;;;;;;0.90;0.90;;;;;;;;;;5033736;28;20934;-64
2021/04/11 09:11:50;;;;;;;0.60;0.60;;;;;;;;;;5028496;28;20398;-65
2021/04/11 09:14:34;;;;;;;0.50;0.40;;;;;;;;;;5031837;28;20402;-65
2021/04/11 09:17:00;;;;;;;0.70;0.50;;;;;;;;;;5032035;28;20420;-65
2021/04/11 09:19:29;;;;;;;1.90;1.37;;;;;;;;;;5030241;28;20783;-66
2021/04/11 09:22:07;;;;;;;1.00;1.00;;;;;;;;;;5033556;28;20926;-67
2021/04/11 09:24:40;;;;;;;0.50;0.40;;;;;;;;;;5036090;28;20416;-66
2021/04/11 09:27:25;;;;;;;0.53;0.53;;;;;;;;;;5032658;28;20842;-64
2021/04/11 09:30:06;;;;;;;0.67;0.60;;;;;;;;;;5032920;28;21190;-67
2021/04/11 09:32:51;;;;;;;1.30;0.80;;;;;;;;;;5033607;28;20427;-64
2021/04/11 09:35:29;;;;;;;1.30;1.10;;;;;;;;;;5032420;28;20435;-65
2021/04/11 09:38:14;;;;;;;0.50;0.50;;;;;;;;;;5028396;28;20443;-66
2021/04/11 09:40:46;;;;;;;1.07;0.60;;;;;;;;;;5026853;28;20487;-64
2021/04/11 09:43:15;;;;;;;0.60;0.60;;;;;;;;;;5027990;28;20454;-65
2021/04/11 09:45:50;;;;;;;0.60;0.53;;;;;;;;;;5032212;28;20408;-66
2021/04/11 09:48:34;;;;;;;0.60;0.50;;;;;;;;;;5032710;28;20469;-65
2021/04/11 09:51:07;;;;;;;0.63;0.50;;;;;;;;;;5030154;28;20865;-67
2021/04/11 09:53:52;;;;;;;0.73;0.47;;;;;;;;;;5030525;28;20432;-66
2021/04/11 09:56:37;;;;;;;1.27;0.60;;;;;;;;;;5032692;28;20887;-66
2021/04/11 09:59:30;;;;;;;1.50;1.17;;;;;;;;;;5013566;28;20478;-66
2021/04/11 10:02:15;;;;;;;1.03;1.03;;;;;;;;;;5032436;28;20427;-65
2021/04/11 10:04:48;;;;;;;0.90;0.60;;;;;;;;;;5032402;28;20402;-67
2021/04/11 10:07:46;;;;;;;0.80;0.77;;;;;;;;;;5031367;28;20446;-68
2021/04/11 10:10:15;;;;;;;0.60;0.50;;;;;;;;;;4987439;28;20444;-67
2021/04/11 10:12:47;;;;;;;3.23;0.80;;;;;;;;;;5030125;28;20439;-66
2021/04/11 10:15:29;;;;;;;0.70;0.47;;;;;;;;;;5037329;28;20419;-70
2021/04/11 10:18:01;;;;;;;0.70;0.63;;;;;;;;;;5035953;28;20431;-66
2021/04/11 10:21:00;;;;;;;0.70;0.40;;;;;;;;;;5033448;28;20409;-66
2021/04/11 10:23:31;;;;;;;0.93;0.80;;;;;;;;;;4987365;28;20427;-66
2021/04/11 10:26:12;;;;;;;0.53;0.53;;;;;;;;;;5031240;28;20466;-68
2021/04/11 10:28:40;;;;;;;3.80;0.67;;;;;;;;;;5059737;22;20500;-64
2021/04/11 10:31:25;;;;;;;0.60;0.40;;;;;;;;;;5071036;28;20429;-64
2021/04/11 10:33:54;;;;;;;0.80;0.70;;;;;;;;;;5066673;28;20433;-64
2021/04/11 10:36:24;;;;;;;0.70;0.63;;;;;;;;;;5052325;28;20461;-64
2021/04/11 10:38:58;;;;;;;0.80;0.60;;;;;;;;;;5044873;28;20477;-63
2021/04/11 10:41:33;;;;;;;0.63;0.53;;;;;;;;;;5049658;28;20442;-63
2021/04/11 10:44:18;;;;;;;0.60;0.50;;;;;;;;;;5047891;28;20484;-63
2021/04/11 10:46:50;;;;;;;0.90;0.50;;;;;;;;;;5041704;28;20848;-63
2021/04/11 10:49:28;;;;;;;0.80;0.50;;;;;;;;;;5044651;28;20491;-63
2021/04/11 10:51:54;;;;;;;1.53;0.80;;;;;;;;;;5032141;28;20473;-63
2021/04/11 10:54:29;;;;;;;0.97;0.60;;;;;;;;;;5051329;28;20426;-63
2021/04/11 10:57:10;;;;;;;0.73;0.73;;;;;;;;;;5052235;28;20473;-63
2021/04/11 10:59:36;;;;;;;1.03;0.70;;;;;;;;;;5049018;28;20462;-63
2021/04/11 11:02:21;;;;;;;1.00;0.80;;;;;;;;;;5032877;28;20426;-63
2021/04/11 11:04:56;;;;;;;0.53;0.53;;;;;;;;;;5049615;28;20470;-63
2021/04/11 11:07:31;;;;;;;0.67;0.67;;;;;;;;;;5048719;28;20438;-63
2021/04/11 11:10:07;;;;;;;0.70;0.67;;;;;;;;;;5050564;28;20572;-63
2021/04/11 11:12:43;;;;;;;1.63;0.70;;;;;;;;;;5050735;28;20434;-63
2021/04/11 11:15:12;;;;;;;0.70;0.67;;;;;;;;;;5049104;28;20457;-63
2021/04/11 11:17:45;;;;;;;1.07;0.93;;;;;;;;;;5049998;28;20896;-63
2021/04/11 11:20:32;;;;;;;0.70;0.60;;;;;;;;;;5048910;28;20418;-63
2021/04/11 11:23:07;;;;;;;0.70;0.70;;;;;;;;;;5049460;28;20443;-63
2021/04/11 11:25:45;;;;;;;0.57;0.57;;;;;;;;;;5049960;28;20434;-63
2021/04/11 11:28:17;;;;;;;1.17;1.03;;;;;;;;;;5038298;28;20450;-62
2021/04/11 11:31:06;;;;;;;0.97;0.80;;;;;;;;;;5046047;28;20492;-63
2021/04/11 11:33:45;;;;;;;0.60;0.60;;;;;;;;;;5043794;28;20459;-61
2021/04/11 11:36:16;;;;;;;0.50;0.50;;;;;;;;;;5030428;28;20434;-63
2021/04/11 11:39:04;;;;;;;1.13;1.03;;;;;;;;;;5049119;28;20420;-63
2021/04/11 11:41:35;;;;;;;0.90;0.90;;;;;;;;;;5042131;28;20442;-63
2021/04/11 11:44:20;;;;;;;1.90;0.80;;;;;;;;;;5043549;28;20434;-63
2021/04/11 11:47:03;;;;;;;0.60;0.60;;;;;;;;;;5045920;28;20441;-63
2021/04/11 11:49:36;;;;;;;2.30;1.07;;;;;;;;;;5042171;28;20469;-63
2021/04/11 11:52:11;;;;;;;0.80;0.70;;;;;;;;;;5045594;28;20436;-64
2021/04/11 11:54:47;;;;;;;0.50;0.50;;;;;;;;;;5045083;28;20444;-63
2021/04/11 11:57:19;;;;;;;0.70;0.70;;;;;;;;;;5046915;28;20850;-64
2021/04/11 11:59:57;;;;;;;0.50;0.50;;;;;;;;;;5045239;28;20555;-63
2021/04/11 12:02:27;;;;;;;1.33;1.20;;;;;;;;;;5044950;28;20423;-64
2021/04/11 12:04:53;;;;;;;1.80;1.10;;;;;;;;;;5047189;28;20424;-64
2021/04/11 12:07:25;;;;;;;0.70;0.70;;;;;;;;;;5048253;28;20430;-64
2021/04/11 12:10:02;;;;;;;0.93;0.90;;;;;;;;;;5047549;28;20559;-64
2021/04/11 12:12:30;;;;;;;1.27;1.17;;;;;;;;;;5048782;28;20429;-63
2021/04/11 12:15:01;;;;;;;1.33;0.97;;;;;;;;;;5049569;28;20929;-64
2021/04/11 12:17:31;;;;;;;1.07;0.80;;;;;;;;;;5048637;28;20445;-63
2021/04/11 12:20:06;;;;;;;2.00;1.03;;;;;;;;;;5048935;28;20446;-64
2021/04/11 12:22:42;;;;;;;0.70;0.70;;;;;;;;;;5047884;28;20442;-64
2021/04/11 12:25:17;;;;;;;0.60;0.60;;;;;;;;;;5045701;28;20491;-64
2021/04/11 12:27:43;;;;;;;0.70;0.70;;;;;;;;;;5048897;28;20424;-64
2021/04/11 12:30:12;;;;;;;0.70;0.63;;;;;;;;;;5049694;28;20527;-64
2021/04/11 12:32:53;;;;;;;0.70;0.70;;;;;;;;;;5053746;28;20824;-63
2021/04/11 12:35:30;;;;;;;0.70;0.70;;;;;;;;;;5047701;28;20892;-64
2021/04/11 12:38:08;;;;;;;0.60;0.60;;;;;;;;;;5053386;28;20511;-64
2021/04/11 12:40:41;;;;;;;0.70;0.70;;;;;;;;;;5052948;28;20446;-63
2021/04/11 12:43:19;;;;;;;0.80;0.80;;;;;;;;;;5053960;28;20598;-63
2021/04/11 12:45:48;;;;;;;0.77;0.77;;;;;;;;;;5054018;28;20425;-64
2021/04/11 12:48:16;;;;;;;0.60;0.60;;;;;;;;;;5052822;28;20446;-63
2021/04/11 12:50:54;;;;;;;0.70;0.70;;;;;;;;;;5053486;28;20418;-64
2021/04/11 12:53:29;;;;;;;1.33;0.93;;;;;;;;;;5053141;28;21007;-64
2021/04/11 12:55:56;;;;;;;1.37;1.27;;;;;;;;;;5053375;28;20403;-64
2021/04/11 12:58:22;;;;;;;1.03;0.97;;;;;;;;;;5052984;28;20527;-64
2021/04/11 13:00:51;;;;;;;0.70;0.53;;;;;;;;;;5053119;28;20926;-64
2021/04/11 13:03:21;;;;;;;0.50;0.50;;;;;;;;;;5053907;28;20915;-64
2021/04/11 13:05:50;;;;;;;1.30;1.20;;;;;;;;;;5054249;28;20410;-64
2021/04/11 13:08:24;;;;;;;0.73;0.60;;;;;;;;;;5053489;28;20826;-64
2021/04/11 13:10:56;;;;;;;1.10;1.00;;;;;;;;;;5053331;28;20434;-64
2021/04/11 13:13:41;;;;;;;0.77;0.77;;;;;;;;;;5053981;28;20940;-64
2021/04/11 13:16:15;;;;;;;0.80;0.63;;;;;;;;;;5054249;28;20877;-64
2021/04/11 13:19:01;;;;;;;0.70;0.70;;;;;;;;;;5053821;28;20399;-64
2021/04/11 13:21:31;;;;;;;0.90;0.90;;;;;;;;;;5054418;28;20710;-64
2021/04/11 13:24:17;;;;;;;1.90;1.07;;;;;;;;;;5054218;28;20418;-64
2021/04/11 13:27:01;;;;;;;0.70;0.70;;;;;;;;;;5053328;28;20501;-64
2021/04/11 13:29:27;;;;;;;0.80;0.80;;;;;;;;;;5052993;28;20902;-64
2021/04/11 13:32:25;;;;;;;0.80;0.80;;;;;;;;;;5053760;28;20403;-64
2021/04/11 13:35:11;;;;;;;0.80;0.57;;;;;;;;;;4999292;28;20453;-63
2021/04/11 13:37:42;;;;;;;0.73;0.73;;;;;;;;;;5003390;28;20385;-64
2021/04/11 13:40:11;;;;;;;0.70;0.60;;;;;;;;;;5052481;28;20431;-64
2021/04/11 13:42:40;;;;;;;0.70;0.70;;;;;;;;;;5053048;28;20457;-64
2021/04/11 13:45:09;;;;;;;0.70;0.57;;;;;;;;;;5053467;28;20418;-64
2021/04/11 13:47:58;;;;;;;0.50;0.50;;;;;;;;;;5053000;28;20410;-64
2021/04/11 13:50:35;;;;;;;0.50;0.50;;;;;;;;;;5005325;28;20993;-64
2021/04/11 13:53:20;;;;;;;0.93;0.67;;;;;;;;;;5033699;28;20422;-64
2021/04/11 13:55:55;;;;;;;1.70;0.70;;;;;;;;;;5053690;28;21132;-64
2021/04/11 13:58:25;;;;;;;0.70;0.70;;;;;;;;;;5053493;28;20501;-64
2021/04/11 14:01:01;;;;;;;2.17;0.80;;;;;;;;;;5052678;28;20384;-64
2021/04/11 14:03:30;;;;;;;0.80;0.80;;;;;;;;;;5053032;28;20414;-64
2021/04/11 14:05:58;;;;;;;0.60;0.50;;;;;;;;;;5053362;28;20420;-63
2021/04/11 14:08:24;;;;;;;0.80;0.80;;;;;;;;;;5053145;28;20489;-64
2021/04/11 14:10:55;;;;;;;1.57;1.00;;;;;;;;;;5052542;28;20415;-64
2021/04/11 14:13:23;;;;;;;0.87;0.87;;;;;;;;;;5053451;28;20510;-64
2021/04/11 14:15:56;;;;;;;0.60;0.53;;;;;;;;;;5053023;28;20410;-64
2021/04/11 14:18:24;;;;;;;0.73;0.40;;;;;;;;;;5053566;28;20394;-64
2021/04/11 14:20:56;;;;;;;0.50;0.50;;;;;;;;;;5052614;28;20435;-64
2021/04/11 14:23:41;;;;;;;1.07;0.97;;;;;;;;;;5053210;28;20414;-64
2021/04/11 14:26:07;;;;;;;1.07;0.90;;;;;;;;;;5053290;28;20410;-64
2021/04/11 14:28:45;;;;;;;0.77;0.77;;;;;;;;;;5052366;28;20445;-64
2021/04/11 14:31:30;;;;;;;0.90;0.80;;;;;;;;;;5052694;28;20418;-64
2021/04/11 14:33:56;;;;;;;0.57;0.57;;;;;;;;;;5053039;28;20405;-66
2021/04/11 14:36:23;;;;;;;0.53;0.50;;;;;;;;;;5052787;28;20882;-64
2021/04/11 14:39:08;;;;;;;1.20;0.70;;;;;;;;;;5051090;28;20841;-66
2021/04/11 14:41:44;;;;;;;12.50;1.07;;;;;;;;;;5052511;28;20853;-65
2021/04/11 14:44:11;;;;;;;0.60;0.60;;;;;;;;;;5052552;28;20414;-67
2021/04/11 14:46:54;;;;;;;0.73;0.57;;;;;;;;;;5052385;28;20457;-63
2021/04/11 14:49:21;;;;;;;0.67;0.63;;;;;;;;;;5051455;28;20639;-64
2021/04/11 14:51:47;;;;;;;0.50;0.50;;;;;;;;;;5051722;28;20442;-63
2021/04/11 14:54:19;;;;;;;0.60;0.60;;;;;;;;;;5051575;28;20774;-63
2021/04/11 14:57:04;;;;;;;0.60;0.60;;;;;;;;;;5052078;28;20405;-64
2021/04/11 14:59:33;;;;;;;0.97;0.90;;;;;;;;;;5051169;28;20436;-64
2021/04/11 15:02:01;;;;;;;1.07;0.80;;;;;;;;;;5052062;28;20854;-64
2021/04/11 15:04:52;;;;;;;0.40;0.40;;;;;;;;;;5052182;28;20445;-64
2021/04/11 15:07:21;;;;;;;0.77;0.77;;;;;;;;;;5052232;28;20493;-63
2021/04/11 15:09:53;;;;;;;1.17;0.90;;;;;;;;;;5051226;28;20821;-64
2021/04/11 15:12:38;;;;;;;0.73;0.60;;;;;;;;;;5052080;28;20413;-63
2021/04/11 15:15:22;;;;;;;0.93;0.90;;;;;;;;;;5052066;28;20402;-64
2021/04/11 15:17:59;;;;;;;2.23;1.17;;;;;;;;;;5051590;28;20411;-64
2021/04/11 15:20:27;;;;;;;1.23;1.13;;;;;;;;;;5051144;28;20778;-64